Time;durP1;ratioP1;P1;durP2;ratioP2;P2;SDS_P1;SDS_P2;PMS_P1;PMS_P2;Temp;Humidity;BMP_temperature;BMP_pressure;BME280_temperature;BME280_humidity;BME280_pressure;Samples;Min_cycle;Max_cycle;Signal;HPM_P1;HPM_P2
2021/09/30 00:00:51;;;;;;;2.15;1.05;;;;;;;10.75;100.00;102274.81;4988768;28;20105;-63
2021/09/30 00:03:18;;;;;;;3.40;1.13;;;;;;;11.22;100.00;102272.25;4976943;28;20062;-62
2021/09/30 00:05:44;;;;;;;4.95;1.17;;;;;;;11.38;100.00;102278.00;4993265;28;20051;-63
2021/09/30 00:08:11;;;;;;;3.88;1.25;;;;;;;10.79;100.00;102286.75;4988933;28;20054;-61
2021/09/30 00:10:43;;;;;;;3.97;1.05;;;;;;;10.28;100.00;102286.91;4983151;28;20592;-62
2021/09/30 00:13:46;;;;;;;3.10;1.17;;;;;;;10.17;100.00;102292.06;4988547;28;20059;-63
2021/09/30 00:16:22;;;;;;;3.80;1.08;;;;;;;11.76;100.00;102286.53;4981127;28;20053;-63
2021/09/30 00:35:28;;;;;;;5.95;1.38;;;;;;;10.02;100.00;102302.69;4992981;28;20164;-63
2021/09/30 00:41:07;;;;;;;4.55;1.40;;;;;;;9.93;100.00;102305.91;4987164;28;20496;-62
2021/09/30 00:51:55;;;;;;;7.03;2.10;;;;;;;9.96;100.00;102307.47;4985126;28;20546;-63
2021/09/30 02:22:06;;;;;;;12.68;3.40;;;;;;;9.97;100.00;102341.47;4982551;28;20078;-62
2021/09/30 03:00:20;;;;;;;9.05;3.33;;;;;;;9.29;100.00;102358.25;4992423;28;20057;-63
2021/09/30 03:02:52;;;;;;;12.27;3.53;;;;;;;9.20;100.00;102362.31;4976336;28;20166;-63
2021/09/30 03:05:21;;;;;;;11.20;3.53;;;;;;;9.14;100.00;102356.63;4990940;28;20060;-63
2021/09/30 03:07:53;;;;;;;8.30;3.42;;;;;;;9.09;100.00;102354.31;4984182;28;20157;-63
2021/09/30 03:10:21;;;;;;;9.38;3.20;;;;;;;10.16;100.00;102354.16;4991693;28;20077;-63
2021/09/30 03:12:49;;;;;;;13.75;3.83;;;;;;;10.84;100.00;102355.50;4989591;28;20177;-63
2021/09/30 03:15:29;;;;;;;10.48;3.03;;;;;;;10.06;100.00;102366.22;4983476;28;20141;-63
2021/09/30 03:23:24;;;;;;;10.60;3.25;;;;;;;9.49;100.00;102372.66;4989834;28;20081;-62
2021/09/30 03:25:52;;;;;;;7.10;3.10;;;;;;;9.23;100.00;102379.59;4985227;28;20408;-63
2021/09/30 03:28:22;;;;;;;9.85;3.05;;;;;;;9.07;100.00;102379.75;4993424;28;20069;-63
2021/09/30 03:30:52;;;;;;;14.55;3.65;;;;;;;9.04;100.00;102375.56;4981422;28;20471;-63
2021/09/30 03:33:20;;;;;;;13.13;3.47;;;;;;;10.70;100.00;102374.03;4988029;28;20094;-63
2021/09/30 03:35:47;;;;;;;14.23;3.05;;;;;;;9.60;100.00;102375.38;4991918;28;20141;-63
2021/09/30 03:38:13;;;;;;;10.63;3.42;;;;;;;9.24;100.00;102376.88;4983302;28;20144;-63
2021/09/30 03:40:41;;;;;;;11.43;3.42;;;;;;;9.16;100.00;102373.91;4990575;28;20050;-63
2021/09/30 03:43:08;;;;;;;8.75;3.22;;;;;;;9.04;100.00;102377.34;4976478;28;20145;-63
2021/09/30 03:45:36;;;;;;;11.48;3.40;;;;;;;8.95;100.00;102367.44;4984664;28;20073;-63
2021/09/30 03:48:04;;;;;;;11.80;3.13;;;;;;;9.86;100.00;102371.03;4982235;28;20081;-65
2021/09/30 03:50:34;;;;;;;9.02;3.22;;;;;;;10.68;100.00;102366.28;4992064;28;20574;-63
2021/09/30 03:53:04;;;;;;;15.60;4.10;;;;;;;9.55;100.00;102374.88;4991755;28;20136;-64
2021/09/30 03:55:43;;;;;;;8.82;2.78;;;;;;;9.19;100.00;102384.22;4985823;28;20042;-64
2021/09/30 04:00:55;;;;;;;18.23;3.40;;;;;;;8.94;100.00;102384.94;4980885;28;20390;-63
2021/09/30 04:03:22;;;;;;;11.70;3.25;;;;;;;8.88;100.00;102385.31;4987821;28;20050;-64
2021/09/30 04:05:48;;;;;;;8.20;3.38;;;;;;;8.82;100.00;102391.78;4981302;28;20182;-63
2021/09/30 04:08:14;;;;;;;10.35;3.70;;;;;;;9.26;100.00;102387.25;4991460;28;20133;-64
2021/09/30 04:10:41;;;;;;;10.38;3.00;;;;;;;9.06;100.00;102396.41;4988318;28;20074;-64
2021/09/30 04:13:08;;;;;;;11.43;3.35;;;;;;;10.56;100.00;102396.00;4976711;28;20108;-64
2021/09/30 04:15:34;;;;;;;13.13;3.33;;;;;;;11.47;99.95;102392.94;4990649;28;20133;-64
2021/09/30 04:18:01;;;;;;;8.45;3.08;;;;;;;11.71;94.73;102394.69;4982222;28;20056;-64
2021/09/30 04:20:28;;;;;;;10.32;3.20;;;;;;;11.21;95.03;102402.75;4988365;28;20590;-63
2021/09/30 04:22:54;;;;;;;9.10;2.88;;;;;;;11.42;97.00;102402.09;4983299;28;20138;-64
2021/09/30 04:25:21;;;;;;;9.48;3.00;;;;;;;9.86;100.00;102410.34;4986187;28;20086;-63
2021/09/30 04:27:47;;;;;;;8.90;3.00;;;;;;;9.39;100.00;102414.34;4991248;28;20101;-64
2021/09/30 04:30:14;;;;;;;13.90;3.53;;;;;;;9.13;100.00;102417.78;4984783;28;20137;-63
2021/09/30 04:32:40;;;;;;;15.80;3.28;;;;;;;8.98;100.00;102414.38;4987311;28;20074;-63
2021/09/30 04:35:07;;;;;;;8.60;3.30;;;;;;;8.88;100.00;102412.31;4983314;28;20062;-64
2021/09/30 04:37:34;;;;;;;12.93;3.58;;;;;;;8.94;100.00;102425.94;4989325;28;20138;-64
2021/09/30 04:40:00;;;;;;;9.93;3.20;;;;;;;8.85;100.00;102422.13;4978703;28;20821;-63
2021/09/30 04:42:27;;;;;;;11.57;3.45;;;;;;;8.80;100.00;102427.66;4983059;28;20054;-64
2021/09/30 04:44:54;;;;;;;10.05;2.80;;;;;;;8.79;100.00;102431.22;4994425;28;20505;-64
2021/09/30 04:47:20;;;;;;;10.15;3.40;;;;;;;8.76;100.00;102428.81;4981249;28;20056;-63
2021/09/30 04:49:47;;;;;;;10.73;2.97;;;;;;;9.44;100.00;102429.75;4992397;28;20531;-63
2021/09/30 04:52:14;;;;;;;16.48;3.72;;;;;;;8.91;100.00;102433.06;4980214;28;20081;-63
2021/09/30 04:54:40;;;;;;;12.20;3.42;;;;;;;8.75;100.00;102429.72;4982796;28;20411;-63
2021/09/30 04:57:07;;;;;;;8.60;3.50;;;;;;;8.77;100.00;102427.84;4983859;28;20144;-63
2021/09/30 04:59:33;;;;;;;17.60;3.58;;;;;;;8.97;100.00;102425.75;4990303;28;20517;-64
2021/09/30 05:02:00;;;;;;;11.40;3.45;;;;;;;9.06;100.00;102428.66;5008777;28;20614;-64
2021/09/30 05:04:27;;;;;;;13.05;3.55;;;;;;;9.06;100.00;102435.66;4984054;28;20498;-63
2021/09/30 05:06:55;;;;;;;8.30;3.25;;;;;;;9.00;100.00;102436.88;4998300;28;20960;-63
2021/09/30 05:09:24;;;;;;;10.13;3.30;;;;;;;9.24;100.00;102434.47;4980536;28;20061;-64
2021/09/30 05:11:52;;;;;;;9.82;3.50;;;;;;;10.92;100.00;102438.97;4987012;28;20058;-63
2021/09/30 05:14:19;;;;;;;20.43;3.60;;;;;;;11.18;97.93;102431.00;4985001;28;20074;-64
2021/09/30 05:16:47;;;;;;;13.73;4.03;;;;;;;9.74;100.00;102442.63;4984045;28;20302;-64
2021/09/30 05:19:14;;;;;;;7.57;3.33;;;;;;;9.10;100.00;102439.75;4990062;28;20608;-64
2021/09/30 05:21:41;;;;;;;10.27;3.65;;;;;;;8.89;100.00;102440.16;4973678;28;20109;-64
2021/09/30 05:24:08;;;;;;;8.35;3.70;;;;;;;8.74;100.00;102442.88;4985655;28;20050;-64
2021/09/30 05:26:34;;;;;;;18.30;3.67;;;;;;;9.45;100.00;102452.38;4979779;28;20100;-63
2021/09/30 05:29:00;;;;;;;11.55;3.40;;;;;;;9.97;100.00;102446.31;4989975;28;20088;-63
2021/09/30 05:31:28;;;;;;;11.27;3.47;;;;;;;9.09;100.00;102451.16;4979664;28;20070;-64
2021/09/30 05:33:56;;;;;;;11.10;4.23;;;;;;;8.96;100.00;102445.00;4989042;28;20057;-64
2021/09/30 05:36:23;;;;;;;12.48;3.55;;;;;;;8.97;100.00;102446.72;4980420;28;20096;-63
2021/09/30 05:38:49;;;;;;;8.85;3.47;;;;;;;9.01;100.00;102440.34;4985745;28;20674;-63
2021/09/30 05:41:17;;;;;;;8.80;3.53;;;;;;;8.66;100.00;102441.59;4986216;28;20149;-64
2021/09/30 05:43:50;;;;;;;10.85;3.47;;;;;;;8.52;100.00;102441.59;4983178;28;20133;-64
2021/09/30 05:46:18;;;;;;;17.92;3.90;;;;;;;9.46;100.00;102446.19;4986715;28;20555;-64
2021/09/30 05:48:45;;;;;;;;;;;;;;;8.88;100.00;102448.13;4979475;28;20499;-64
2021/09/30 05:51:11;;;;;;;13.10;3.83;;;;;;;8.58;100.00;102443.00;4990895;28;19921;-63
2021/09/30 05:53:38;;;;;;;12.13;3.70;;;;;;;8.46;100.00;102447.19;4989195;28;20140;-65
2021/09/30 05:56:05;;;;;;;9.95;3.88;;;;;;;8.99;100.00;102444.84;4985530;28;20069;-62
2021/09/30 05:58:31;;;;;;;11.60;3.60;;;;;;;9.25;100.00;102443.16;4989604;28;20148;-65
2021/09/30 06:01:12;;;;;;;9.48;3.22;;;;;;;8.93;100.00;102440.81;5001197;28;20529;-63
2021/09/30 06:08:58;;;;;;;16.98;3.50;;;;;;;8.95;100.00;102446.78;4977665;28;20081;-63
2021/09/30 06:12:16;;;;;;;10.07;3.70;;;;;;;8.80;100.00;102437.28;4979780;28;20132;-63
2021/09/30 06:14:45;;;;;;;12.38;4.03;;;;;;;8.59;100.00;102453.38;4989845;28;20157;-63
2021/09/30 06:17:11;;;;;;;;;;;;;;;9.36;100.00;102451.19;4982034;28;20486;-64
2021/09/30 06:19:38;;;;;;;11.30;3.72;;;;;;;8.91;100.00;102442.69;4986011;28;19925;-63
2021/09/30 06:22:07;;;;;;;9.77;3.40;;;;;;;9.15;100.00;102449.94;4988180;28;20141;-63
2021/09/30 06:24:34;;;;;;;9.63;3.67;;;;;;;9.76;100.00;102460.84;4982537;28;20844;-63
2021/09/30 06:27:02;;;;;;;11.43;3.72;;;;;;;8.94;100.00;102457.34;4986650;28;20133;-63
2021/09/30 06:29:30;;;;;;;12.80;3.63;;;;;;;8.95;100.00;102457.25;4980265;28;20144;-63
2021/09/30 06:31:57;;;;;;;9.38;3.47;;;;;;;9.04;100.00;102459.31;4982250;28;20053;-63
2021/09/30 06:34:23;;;;;;;10.00;3.38;;;;;;;8.93;100.00;102461.75;4989342;28;20178;-63
2021/09/30 06:36:50;;;;;;;12.52;3.85;;;;;;;8.84;100.00;102459.69;4982100;28;20756;-63
2021/09/30 06:39:17;;;;;;;8.07;2.97;;;;;;;8.78;100.00;102458.31;4993479;28;20128;-63
2021/09/30 06:41:43;;;;;;;8.52;3.40;;;;;;;8.83;100.00;102458.88;4994692;28;20856;-63
2021/09/30 06:44:16;;;;;;;12.57;4.22;;;;;;;8.88;100.00;102463.84;4990810;28;20049;-63
2021/09/30 06:46:43;;;;;;;14.60;3.40;;;;;;;8.84;100.00;102468.41;4978538;28;20054;-63
2021/09/30 06:49:09;;;;;;;9.32;3.47;;;;;;;8.95;100.00;102475.59;4988700;28;20341;-63
2021/09/30 06:51:36;;;;;;;9.63;3.50;;;;;;;9.54;100.00;102485.00;4994726;28;20146;-63
2021/09/30 06:54:03;;;;;;;12.93;3.40;;;;;;;9.72;100.00;102482.97;4989606;28;20145;-65
2021/09/30 06:56:32;;;;;;;18.83;4.28;;;;;;;9.42;100.00;102486.63;4989747;28;20043;-63
2021/09/30 06:59:06;;;;;;;15.73;5.35;;;;;;;9.69;100.00;102490.06;4983002;28;20151;-63
2021/09/30 07:01:35;;;;;;;12.98;3.70;;;;;;;9.67;100.00;102491.13;5010185;28;20058;-63
2021/09/30 07:04:06;;;;;;;12.43;3.72;;;;;;;10.33;100.00;102473.69;4987654;28;20050;-63
2021/09/30 07:06:33;;;;;;;11.05;3.63;;;;;;;10.10;100.00;102477.81;5000054;28;20077;-63
2021/09/30 07:09:00;;;;;;;16.95;3.67;;;;;;;9.60;100.00;102484.59;4994878;28;20569;-63
2021/09/30 07:11:26;;;;;;;9.68;3.67;;;;;;;9.48;100.00;102489.69;4979576;28;20078;-63
2021/09/30 07:13:53;;;;;;;10.95;3.40;;;;;;;9.79;100.00;102492.94;4992508;28;20133;-65
2021/09/30 07:16:19;;;;;;;16.63;3.53;;;;;;;9.62;100.00;102496.66;4986329;28;20794;-65
2021/09/30 07:18:46;;;;;;;11.35;3.55;;;;;;;11.06;100.00;102488.72;4992003;28;20455;-65
2021/09/30 07:21:12;;;;;;;9.60;3.40;;;;;;;10.53;100.00;102487.22;4992449;28;20152;-63
2021/09/30 07:23:40;;;;;;;9.57;3.22;;;;;;;10.48;100.00;102487.50;4985221;28;20450;-63
2021/09/30 07:26:08;;;;;;;9.80;3.30;;;;;;;10.07;100.00;102491.97;4980261;28;20270;-63
2021/09/30 07:28:37;;;;;;;12.43;3.13;;;;;;;10.05;100.00;102493.00;4987207;28;20128;-65
2021/09/30 07:31:08;;;;;;;11.23;3.15;;;;;;;10.10;100.00;102488.31;4998602;28;20095;-65
2021/09/30 07:33:35;;;;;;;12.52;3.20;;;;;;;9.97;100.00;102490.88;4987243;28;20049;-65
2021/09/30 07:36:02;;;;;;;9.93;3.15;;;;;;;10.02;100.00;102490.59;4987705;28;20050;-64
2021/09/30 07:38:28;;;;;;;10.18;2.80;;;;;;;10.34;100.00;102488.47;4977013;28;20173;-63
2021/09/30 07:40:55;;;;;;;15.13;3.47;;;;;;;10.07;100.00;102491.13;4978065;28;20054;-63
2021/09/30 07:43:22;;;;;;;6.82;2.88;;;;;;;10.22;100.00;102489.25;4986108;28;20077;-63
2021/09/30 07:45:48;;;;;;;8.98;3.05;;;;;;;11.31;100.00;102480.84;4994133;28;20050;-63
2021/09/30 07:48:15;;;;;;;8.65;3.28;;;;;;;10.99;98.03;102487.47;4991850;28;20184;-63
2021/09/30 07:50:41;;;;;;;8.25;2.45;;;;;;;11.46;100.00;102485.84;4993706;28;20421;-63
2021/09/30 07:53:08;;;;;;;9.32;2.63;;;;;;;11.54;93.59;102487.91;4987551;28;20142;-63
2021/09/30 07:55:34;;;;;;;10.70;3.08;;;;;;;10.75;100.00;102492.66;4995668;28;20153;-63
2021/09/30 07:58:03;;;;;;;9.57;2.75;;;;;;;10.53;100.00;102498.56;4992243;28;20546;-63
2021/09/30 08:00:30;;;;;;;11.00;2.58;;;;;;;10.48;100.00;102501.47;4994789;28;20470;-64
2021/09/30 08:02:56;;;;;;;8.50;2.90;;;;;;;10.50;100.00;102498.75;4986515;28;20856;-64
2021/09/30 08:05:23;;;;;;;11.15;3.85;;;;;;;10.56;100.00;102498.31;4989966;28;20050;-63
2021/09/30 08:07:50;;;;;;;9.65;2.53;;;;;;;10.62;100.00;102500.56;4978523;28;20957;-63
2021/09/30 08:10:17;;;;;;;18.08;3.20;;;;;;;10.62;100.00;102505.78;4986891;28;20100;-64
2021/09/30 08:12:43;;;;;;;10.80;2.60;;;;;;;10.64;100.00;102501.28;4986788;28;20133;-64
2021/09/30 08:15:10;;;;;;;11.07;2.72;;;;;;;10.84;100.00;102515.66;5002911;28;20128;-64
2021/09/30 08:17:36;;;;;;;9.13;2.42;;;;;;;11.13;98.50;102504.03;4991545;28;20675;-64
2021/09/30 08:20:04;;;;;;;9.63;2.88;;;;;;;12.70;87.62;102502.97;4988376;28;20133;-63
2021/09/30 08:22:31;;;;;;;10.13;2.78;;;;;;;11.38;94.92;102503.13;4988235;28;20057;-63
2021/09/30 08:24:57;;;;;;;8.40;2.53;;;;;;;11.06;98.50;102496.59;4984362;28;20116;-64
2021/09/30 08:27:24;;;;;;;9.57;2.33;;;;;;;11.01;98.36;102503.13;4991993;28;20141;-63
2021/09/30 08:29:50;;;;;;;10.63;2.92;;;;;;;11.00;100.00;102511.94;4988221;28;20133;-62
2021/09/30 08:32:17;;;;;;;14.18;3.35;;;;;;;11.07;100.00;102510.56;4996471;28;20100;-63
2021/09/30 08:34:43;;;;;;;9.35;2.92;;;;;;;11.07;98.77;102507.94;4980579;28;20129;-64
2021/09/30 08:37:10;;;;;;;13.60;3.33;;;;;;;11.19;100.00;102508.84;4983850;28;20153;-64
2021/09/30 08:39:36;;;;;;;7.63;2.30;;;;;;;11.30;100.00;102506.28;4989077;28;20058;-63
2021/09/30 08:42:04;;;;;;;10.18;2.72;;;;;;;12.14;94.99;102509.81;4984161;28;20050;-63
2021/09/30 08:44:33;;;;;;;12.25;2.97;;;;;;;11.96;94.09;102511.22;4996589;28;20687;-64
2021/09/30 08:47:02;;;;;;;8.57;2.47;;;;;;;12.72;91.26;102506.31;4982336;28;20050;-64
2021/09/30 08:49:29;;;;;;;13.60;2.83;;;;;;;11.95;93.51;102507.72;4981774;28;20533;-63
2021/09/30 08:51:55;;;;;;;9.23;2.90;;;;;;;11.82;95.43;102514.84;4988676;28;20092;-64
2021/09/30 08:54:22;;;;;;;10.07;3.08;;;;;;;12.40;91.74;102513.09;4979663;28;20109;-64
2021/09/30 08:56:51;;;;;;;10.80;3.00;;;;;;;12.49;92.16;102521.28;4992268;28;20089;-64
2021/09/30 08:59:23;;;;;;;8.45;2.85;;;;;;;12.07;93.66;102514.72;4980059;28;20054;-63
2021/09/30 09:02:10;;;;;;;13.13;2.40;;;;;;;12.04;96.99;102512.31;4997667;28;20562;-62
2021/09/30 09:04:55;;;;;;;9.18;2.30;;;;;;;12.17;96.14;102517.50;4978217;28;20058;-62
2021/09/30 09:07:27;;;;;;;9.57;2.95;;;;;;;12.19;96.56;102515.59;4996035;28;20105;-61
2021/09/30 09:09:56;;;;;;;12.98;2.65;;;;;;;12.16;95.27;102521.06;4990756;28;20081;-62
2021/09/30 09:12:23;;;;;;;8.10;2.88;;;;;;;12.24;94.22;102520.50;4991304;28;20073;-63
2021/09/30 09:14:50;;;;;;;11.35;2.78;;;;;;;12.32;94.34;102523.38;4984297;28;20086;-62
2021/09/30 09:17:19;;;;;;;15.55;3.05;;;;;;;12.36;92.35;102518.72;4979778;28;20084;-62
2021/09/30 09:19:49;;;;;;;12.30;2.80;;;;;;;12.39;91.98;102519.34;4997154;28;20052;-63
2021/09/30 09:22:28;;;;;;;11.43;2.50;;;;;;;13.13;86.35;102518.88;4981440;28;20052;-63
2021/09/30 09:24:56;;;;;;;9.98;2.75;;;;;;;12.72;88.33;102514.22;4987992;28;20093;-63
2021/09/30 09:27:24;;;;;;;9.77;2.47;;;;;;;12.69;87.94;102517.09;4979826;28;20116;-63
2021/09/30 09:29:50;;;;;;;7.30;2.30;;;;;;;12.81;88.36;102518.78;4985620;28;20133;-62
2021/09/30 09:32:17;;;;;;;11.35;2.70;;;;;;;12.84;89.29;102521.19;4977669;28;20156;-63
2021/09/30 09:34:43;;;;;;;10.38;2.35;;;;;;;12.88;87.83;102519.13;4986893;28;20081;-63
2021/09/30 09:37:22;;;;;;;8.02;2.20;;;;;;;13.00;86.65;102511.09;4990257;28;20065;-63
2021/09/30 09:39:53;;;;;;;13.68;2.50;;;;;;;13.29;84.87;102513.22;4977577;28;20101;-62
2021/09/30 09:42:26;;;;;;;12.45;2.42;;;;;;;13.23;86.15;102505.78;4985487;28;20462;-62
2021/09/30 09:45:01;;;;;;;12.95;2.38;;;;;;;13.23;85.85;102513.69;4975465;28;20856;-62
2021/09/30 09:47:30;;;;;;;12.48;2.40;;;;;;;13.25;83.30;102507.38;4987515;28;20152;-63
2021/09/30 09:50:19;;;;;;;9.85;2.10;;;;;;;13.34;86.47;102513.72;4982346;28;20064;-63
2021/09/30 09:52:53;;;;;;;6.78;2.05;;;;;;;13.30;84.45;102507.00;4983478;28;20144;-62
2021/09/30 09:55:27;;;;;;;9.27;3.22;;;;;;;13.37;83.90;102510.84;4975679;28;20068;-60
2021/09/30 09:58:04;;;;;;;8.38;2.30;;;;;;;13.43;85.10;102509.50;4980766;28;20596;-63
2021/09/30 10:00:42;;;;;;;11.55;2.08;;;;;;;13.68;85.14;102505.72;4988775;28;20086;-63
2021/09/30 10:03:30;;;;;;;11.02;2.30;;;;;;;13.66;84.11;102505.00;4979664;28;20048;-63
2021/09/30 10:06:05;;;;;;;12.57;2.15;;;;;;;13.64;83.24;102499.88;4986343;28;20101;-63
2021/09/30 10:08:32;;;;;;;9.82;2.20;;;;;;;13.83;83.36;102504.44;4981082;28;20141;-63
2021/09/30 10:11:00;;;;;;;10.13;1.90;;;;;;;14.23;79.73;102500.31;4979493;28;20145;-62
2021/09/30 10:13:28;;;;;;;8.77;1.92;;;;;;;13.97;77.74;102486.63;4974718;28;20156;-62
2021/09/30 10:15:55;;;;;;;13.48;2.17;;;;;;;14.76;72.63;102486.97;4986086;28;20490;-62
2021/09/30 10:18:24;;;;;;;5.72;1.77;;;;;;;16.17;70.73;102485.84;4981066;28;20054;-63
2021/09/30 10:20:55;;;;;;;7.80;1.83;;;;;;;14.85;73.51;102481.84;4984649;28;20061;-62
2021/09/30 10:23:27;;;;;;;12.20;2.35;;;;;;;14.83;76.53;102479.34;4984686;28;20052;-62
2021/09/30 10:25:58;;;;;;;10.60;1.80;;;;;;;14.49;75.16;102484.88;4974333;28;20082;-63
2021/09/30 10:28:25;;;;;;;14.35;1.85;;;;;;;14.72;72.31;102488.22;4980640;28;20583;-63
2021/09/30 10:30:53;;;;;;;11.43;2.00;;;;;;;14.38;74.39;102479.66;4981124;28;20145;-63
2021/09/30 10:33:40;;;;;;;9.02;1.65;;;;;;;14.73;73.49;102486.41;4987927;28;20050;-63
2021/09/30 10:36:28;;;;;;;9.55;1.90;;;;;;;14.73;74.15;102484.59;4980117;28;20077;-63
2021/09/30 10:39:13;;;;;;;5.45;1.55;;;;;;;15.00;73.64;102472.59;4978055;28;20132;-63
2021/09/30 10:41:39;;;;;;;10.95;1.42;;;;;;;14.77;73.48;102483.34;4974026;28;20243;-63
2021/09/30 10:44:14;;;;;;;7.47;1.80;;;;;;;14.81;73.29;102487.41;4983513;28;20137;-63
2021/09/30 10:46:41;;;;;;;4.40;1.55;;;;;;;15.06;70.55;102481.78;4986965;28;20144;-63
2021/09/30 10:49:26;;;;;;;8.07;2.03;;;;;;;14.62;71.41;102484.66;4979631;28;20447;-63
2021/09/30 10:52:13;;;;;;;12.20;2.10;;;;;;;14.56;73.24;102477.25;4986261;28;20054;-62
2021/09/30 10:54:41;;;;;;;7.97;1.88;;;;;;;14.56;70.84;102471.97;4976110;28;20991;-63
2021/09/30 10:57:35;;;;;;;7.22;1.70;;;;;;;14.49;73.73;102466.41;4985392;28;20137;-62
2021/09/30 11:00:05;;;;;;;7.72;1.50;;;;;;;14.52;72.23;102476.69;4977843;28;20054;-62
2021/09/30 11:03:02;;;;;;;7.00;2.03;;;;;;;14.60;72.77;102473.41;4986018;28;20407;-62
2021/09/30 11:05:33;;;;;;;10.88;1.60;;;;;;;14.75;72.32;102479.19;4976512;28;20132;-62
2021/09/30 11:08:33;;;;;;;10.77;1.40;;;;;;;14.67;69.83;102474.56;4974959;28;20137;-62
2021/09/30 11:11:07;;;;;;;9.52;2.17;;;;;;;14.83;70.28;102489.91;4973245;28;20050;-62
2021/09/30 11:13:54;;;;;;;11.57;1.63;;;;;;;14.94;71.41;102481.88;4982375;28;20053;-62
2021/09/30 11:16:33;;;;;;;7.78;2.10;;;;;;;14.86;69.05;102478.22;4969733;28;20489;-63
2021/09/30 11:19:00;;;;;;;12.73;2.05;;;;;;;14.77;67.78;102496.56;4982814;28;20503;-63
2021/09/30 11:24:03;;;;;;;7.65;1.40;;;;;;;14.96;69.65;102487.03;4975676;28;20056;-63
2021/09/30 11:26:32;;;;;;;9.63;1.30;;;;;;;14.98;66.46;102478.00;4987874;28;20064;-62
2021/09/30 11:29:20;;;;;;;7.47;1.20;;;;;;;15.13;66.84;102475.81;4978769;28;20935;-62
2021/09/30 11:31:56;;;;;;;5.80;1.30;;;;;;;15.15;66.67;102475.66;4990434;28;20054;-63
2021/09/30 11:34:25;;;;;;;8.52;1.38;;;;;;;15.11;68.39;102483.06;4974350;28;20503;-62
2021/09/30 11:36:53;;;;;;;5.97;1.55;;;;;;;15.16;67.53;102482.63;4986095;28;20453;-63
2021/09/30 11:39:20;;;;;;;7.28;1.42;;;;;;;15.07;68.20;102481.63;4978283;28;20061;-62
2021/09/30 11:41:49;;;;;;;7.93;1.77;;;;;;;14.88;66.43;102478.94;4988704;28;20140;-62
2021/09/30 11:44:20;;;;;;;6.82;1.38;;;;;;;14.83;67.44;102466.13;4987455;28;20069;-62
2021/09/30 11:46:51;;;;;;;10.35;1.33;;;;;;;14.68;67.95;102460.41;4985362;28;20093;-62
2021/09/30 11:49:19;;;;;;;9.75;1.55;;;;;;;14.76;67.21;102473.78;4979619;28;20503;-62
2021/09/30 11:51:47;;;;;;;11.27;1.38;;;;;;;14.90;66.90;102472.56;4973607;28;20473;-63
2021/09/30 11:54:22;;;;;;;6.68;1.30;;;;;;;15.02;66.41;102458.25;4987626;28;20548;-62
2021/09/30 11:56:54;;;;;;;6.18;1.58;;;;;;;15.17;66.34;102453.44;4983399;28;20085;-62
2021/09/30 11:59:25;;;;;;;5.85;1.45;;;;;;;15.25;65.47;102447.47;4985421;28;20568;-63
2021/09/30 12:01:54;;;;;;;7.88;1.45;;;;;;;15.69;66.84;102454.97;4985147;28;20161;-63
2021/09/30 12:04:30;;;;;;;9.48;1.63;;;;;;;15.65;62.79;102454.41;4975031;28;20109;-63
2021/09/30 12:06:57;;;;;;;8.80;1.67;;;;;;;15.52;62.15;102459.16;4990374;28;20082;-63
2021/09/30 12:09:23;;;;;;;7.20;1.45;;;;;;;15.48;64.87;102448.00;4977293;28;20136;-63
2021/09/30 12:11:56;;;;;;;4.57;1.10;;;;;;;15.41;64.03;102433.69;4989739;28;20153;-62
2021/09/30 12:14:33;;;;;;;6.65;1.50;;;;;;;15.39;64.25;102438.28;4979437;28;20086;-62
2021/09/30 12:17:02;;;;;;;8.35;1.40;;;;;;;15.33;64.04;102430.91;4985900;28;20594;-62
2021/09/30 12:19:34;;;;;;;6.50;1.45;;;;;;;15.33;64.83;102431.75;4973651;28;20145;-61
2021/09/30 12:22:02;;;;;;;8.52;1.10;;;;;;;15.31;64.19;102436.34;4988717;28;20184;-66
2021/09/30 12:24:29;;;;;;;8.68;1.20;;;;;;;15.14;61.52;102439.66;4985118;28;20798;-62
2021/09/30 12:26:56;;;;;;;9.63;1.42;;;;;;;15.27;62.03;102434.94;4985540;28;20054;-62
2021/09/30 12:29:23;;;;;;;8.45;1.38;;;;;;;15.11;60.58;102431.97;4987544;28;20447;-62
2021/09/30 12:32:05;;;;;;;7.53;1.10;;;;;;;15.15;61.28;102425.44;4976218;28;20748;-62
2021/09/30 12:34:32;;;;;;;4.80;1.30;;;;;;;15.00;61.77;102427.66;4981742;28;20566;-62
2021/09/30 12:36:58;;;;;;;5.78;0.98;;;;;;;15.04;60.52;102429.06;4979334;28;20144;-62
2021/09/30 12:39:27;;;;;;;7.00;1.30;;;;;;;15.10;63.22;102417.94;4985926;28;20733;-61
2021/09/30 12:41:54;;;;;;;;;;;;;;;15.13;62.91;102428.25;4986799;28;20054;-62
2021/09/30 12:44:21;;;;;;;12.15;1.67;;;;;;;15.07;62.86;102427.94;4972775;28;20907;-62
2021/09/30 12:46:51;;;;;;;8.68;1.25;;;;;;;15.04;64.05;102418.50;4985215;28;20050;-62
2021/09/30 12:49:19;;;;;;;8.65;1.23;;;;;;;15.12;65.01;102417.81;4979615;28;20136;-62
2021/09/30 12:51:46;;;;;;;5.78;1.20;;;;;;;15.22;65.93;102411.53;4989700;28;20582;-61
2021/09/30 12:54:24;;;;;;;5.60;1.02;;;;;;;15.33;64.60;102407.13;4980254;28;20038;-62
2021/09/30 12:56:50;;;;;;;8.93;1.58;;;;;;;15.43;65.48;102400.00;4987992;28;20142;-62
2021/09/30 12:59:17;;;;;;;4.93;1.10;;;;;;;15.45;64.17;102394.59;4975267;28;20153;-62
2021/09/30 13:01:43;;;;;;;7.95;1.40;;;;;;;15.39;63.89;102385.41;4984709;28;20811;-62
2021/09/30 13:04:22;;;;;;;8.45;1.50;;;;;;;15.42;65.36;102396.50;4983339;28;20482;-62
2021/09/30 13:06:56;;;;;;;9.13;1.38;;;;;;;15.39;64.92;102385.41;4981555;28;20105;-62
2021/09/30 13:09:32;;;;;;;13.75;1.45;;;;;;;15.37;65.39;102385.53;4985059;28;20690;-62
2021/09/30 13:12:20;;;;;;;6.55;1.08;;;;;;;15.22;66.01;102384.28;4978505;28;20129;-62
2021/09/30 13:14:48;;;;;;;8.30;1.40;;;;;;;15.09;65.13;102384.53;4977370;28;20057;-60
2021/09/30 13:17:16;;;;;;;;;;;;;;;15.20;66.60;102394.16;4975669;28;20054;-62
2021/09/30 13:19:51;;;;;;;7.50;1.27;;;;;;;15.06;66.65;102391.94;4985292;28;20020;-62
2021/09/30 13:22:21;;;;;;;5.40;1.35;;;;;;;15.14;67.53;102386.78;4975880;28;20050;-62
2021/09/30 13:24:49;;;;;;;5.38;1.30;;;;;;;15.10;67.39;102375.66;4984296;28;20558;-62
2021/09/30 13:27:20;;;;;;;7.32;1.45;;;;;;;15.12;67.78;102378.16;4991553;28;20057;-61
2021/09/30 13:29:48;;;;;;;11.10;1.20;;;;;;;15.16;69.12;102374.28;4970854;28;20137;-61
2021/09/30 13:32:17;;;;;;;6.15;1.40;;;;;;;15.27;69.18;102378.56;4991163;28;20115;-62
2021/09/30 13:34:44;;;;;;;13.77;1.75;;;;;;;15.23;67.98;102378.88;4976393;28;20145;-61
2021/09/30 13:37:10;;;;;;;7.85;1.80;;;;;;;15.26;68.08;102371.63;4983028;28;20141;-62
2021/09/30 13:39:37;;;;;;;12.10;1.52;;;;;;;15.06;67.37;102361.03;4973949;28;20208;-60
2021/09/30 13:42:07;;;;;;;7.03;1.10;;;;;;;15.10;68.05;102359.78;4977001;28;20380;-62
2021/09/30 13:44:34;;;;;;;9.32;1.40;;;;;;;15.07;68.21;102354.78;4981256;28;20161;-61
2021/09/30 13:47:01;;;;;;;13.23;2.05;;;;;;;15.01;68.90;102353.56;4974880;28;20050;-62
2021/09/30 13:49:27;;;;;;;12.50;1.80;;;;;;;14.99;69.38;102344.94;4984775;28;20058;-62
2021/09/30 13:51:53;;;;;;;12.38;1.80;;;;;;;15.07;69.43;102346.03;4982894;28;20058;-61
2021/09/30 13:54:20;;;;;;;9.40;1.90;;;;;;;14.89;68.99;102340.59;4982898;28;20093;-62
2021/09/30 13:56:46;;;;;;;7.18;1.50;;;;;;;14.94;69.65;102333.09;4977575;28;20562;-62
2021/09/30 13:59:13;;;;;;;8.55;1.50;;;;;;;14.89;69.68;102336.13;4983350;28;20137;-62
2021/09/30 14:01:59;;;;;;;10.50;1.80;;;;;;;14.88;69.80;102328.34;4985386;28;20057;-62
2021/09/30 14:04:27;;;;;;;9.63;1.65;;;;;;;15.03;71.34;102333.09;4978850;28;20229;-62
2021/09/30 14:06:55;;;;;;;12.68;2.30;;;;;;;14.82;69.47;102333.22;4984221;28;20604;-61
2021/09/30 14:09:23;;;;;;;12.10;2.20;;;;;;;14.80;70.62;102332.53;4968871;28;20515;-61
2021/09/30 14:11:50;;;;;;;11.03;2.00;;;;;;;14.85;71.50;102332.09;4978607;28;20218;-60
2021/09/30 14:14:17;;;;;;;8.27;1.38;;;;;;;14.99;72.40;102331.72;4978016;28;20498;-62
2021/09/30 14:16:44;;;;;;;8.40;2.10;;;;;;;14.99;72.65;102328.22;4983694;28;20085;-62
2021/09/30 14:19:11;;;;;;;11.57;1.67;;;;;;;14.95;71.16;102321.53;4983669;28;20069;-62
2021/09/30 14:21:37;;;;;;;8.00;1.60;;;;;;;14.92;71.45;102321.84;4980923;28;20084;-61